Terminal Aerodrome Forecast
Issued by NWS Buffalo, NY

Current Version | Previous Version | Text Only | Print | Product List | Glossary On
Versions: 1 2 3 4 5 6 7 8 9 10 11 12 13 14 15 16 17 18 19 20 21 22 23 24 25 26 27
755
FTUS41 KBUF 281733
TAFROC
TAF
KROC 281733Z 2818/2918 06011KT P6SM BKN200
     FM282100 05010KT P6SM BKN130
     FM291500 05009KT P6SM BKN050=

USA.gov is the U.S. government's official web portal to all federal, state and local government web resources and services.